sensor_id;sensor_type;location;lat;lon;timestamp;P1;durP1;ratioP1;P2;durP2;ratioP2
1829;SDS011;914;48.118;11.600;2023-05-14T00:01:48;17.57;;;11.53;;
1829;SDS011;914;48.118;11.600;2023-05-14T00:04:16;15.17;;;12.60;;
1829;SDS011;914;48.118;11.600;2023-05-14T00:06:43;12.70;;;11.47;;
1829;SDS011;914;48.118;11.600;2023-05-14T00:09:10;13.07;;;11.57;;
1829;SDS011;914;48.118;11.600;2023-05-14T00:11:36;13.20;;;11.90;;
1829;SDS011;914;48.118;11.600;2023-05-14T00:14:01;15.20;;;12.20;;
1829;SDS011;914;48.118;11.600;2023-05-14T00:16:27;13.43;;;11.73;;
1829;SDS011;914;48.118;11.600;2023-05-14T00:18:53;12.93;;;11.63;;
1829;SDS011;914;48.118;11.600;2023-05-14T00:21:18;13.67;;;11.83;;
1829;SDS011;914;48.118;11.600;2023-05-14T00:23:44;12.83;;;11.53;;
1829;SDS011;914;48.118;11.600;2023-05-14T00:26:10;16.00;;;11.63;;
1829;SDS011;914;48.118;11.600;2023-05-14T00:28:35;14.27;;;12.77;;
1829;SDS011;914;48.118;11.600;2023-05-14T00:31:01;13.53;;;12.13;;
1829;SDS011;914;48.118;11.600;2023-05-14T00:33:26;14.23;;;12.17;;
1829;SDS011;914;48.118;11.600;2023-05-14T00:35:52;13.27;;;11.87;;
1829;SDS011;914;48.118;11.600;2023-05-14T00:38:18;14.30;;;12.07;;
1829;SDS011;914;48.118;11.600;2023-05-14T00:40:44;13.33;;;11.93;;
1829;SDS011;914;48.118;11.600;2023-05-14T00:43:15;13.73;;;12.33;;
1829;SDS011;914;48.118;11.600;2023-05-14T00:45:45;13.43;;;11.80;;
1829;SDS011;914;48.118;11.600;2023-05-14T00:48:14;14.33;;;12.80;;
1829;SDS011;914;48.118;11.600;2023-05-14T00:50:39;13.37;;;11.90;;
1829;SDS011;914;48.118;11.600;2023-05-14T00:53:05;14.67;;;12.03;;
1829;SDS011;914;48.118;11.600;2023-05-14T00:55:34;14.57;;;12.30;;
1829;SDS011;914;48.118;11.600;2023-05-14T00:58:03;14.43;;;12.40;;
1829;SDS011;914;48.118;11.600;2023-05-14T01:00:37;16.00;;;13.23;;
1829;SDS011;914;48.118;11.600;2023-05-14T01:03:04;15.07;;;12.47;;
1829;SDS011;914;48.118;11.600;2023-05-14T01:08:29;14.97;;;13.37;;
1829;SDS011;914;48.118;11.600;2023-05-14T01:16:18;15.43;;;13.77;;
1829;SDS011;914;48.118;11.600;2023-05-14T01:18:45;16.90;;;13.53;;
1829;SDS011;914;48.118;11.600;2023-05-14T01:21:45;15.73;;;13.47;;
1829;SDS011;914;48.118;11.600;2023-05-14T01:24:07;15.50;;;13.70;;
1829;SDS011;914;48.118;11.600;2023-05-14T01:26:34;17.20;;;14.10;;
1829;SDS011;914;48.118;11.600;2023-05-14T01:31:37;14.40;;;13.00;;
1829;SDS011;914;48.118;11.600;2023-05-14T01:34:06;15.07;;;13.47;;
1829;SDS011;914;48.118;11.600;2023-05-14T01:36:33;20.87;;;14.00;;
1829;SDS011;914;48.118;11.600;2023-05-14T01:38:59;17.80;;;14.70;;
1829;SDS011;914;48.118;11.600;2023-05-14T01:41:27;20.77;;;15.37;;
1829;SDS011;914;48.118;11.600;2023-05-14T01:43:54;18.17;;;14.60;;
1829;SDS011;914;48.118;11.600;2023-05-14T01:46:19;16.40;;;14.60;;
1829;SDS011;914;48.118;11.600;2023-05-14T01:48:49;20.47;;;14.57;;
1829;SDS011;914;48.118;11.600;2023-05-14T01:51:14;15.70;;;13.70;;
1829;SDS011;914;48.118;11.600;2023-05-14T01:53:40;15.73;;;13.57;;
1829;SDS011;914;48.118;11.600;2023-05-14T01:56:06;17.00;;;13.70;;
1829;SDS011;914;48.118;11.600;2023-05-14T01:58:32;16.30;;;13.80;;
1829;SDS011;914;48.118;11.600;2023-05-14T02:00:57;16.13;;;14.10;;
1829;SDS011;914;48.118;11.600;2023-05-14T02:03:23;17.90;;;13.70;;
1829;SDS011;914;48.118;11.600;2023-05-14T02:05:48;16.57;;;14.47;;
1829;SDS011;914;48.118;11.600;2023-05-14T02:08:14;17.07;;;13.10;;
1829;SDS011;914;48.118;11.600;2023-05-14T02:10:40;18.90;;;13.10;;
1829;SDS011;914;48.118;11.600;2023-05-14T02:13:06;17.17;;;12.90;;
1829;SDS011;914;48.118;11.600;2023-05-14T02:15:33;17.23;;;13.90;;
1829;SDS011;914;48.118;11.600;2023-05-14T02:17:59;18.30;;;13.40;;
1829;SDS011;914;48.118;11.600;2023-05-14T02:20:24;17.20;;;13.77;;
1829;SDS011;914;48.118;11.600;2023-05-14T02:22:50;16.40;;;14.20;;
1829;SDS011;914;48.118;11.600;2023-05-14T02:25:16;17.37;;;13.50;;
1829;SDS011;914;48.118;11.600;2023-05-14T02:27:41;16.23;;;13.43;;
1829;SDS011;914;48.118;11.600;2023-05-14T02:30:07;20.87;;;16.00;;
1829;SDS011;914;48.118;11.600;2023-05-14T02:32:33;19.43;;;15.43;;
1829;SDS011;914;48.118;11.600;2023-05-14T02:35:00;19.93;;;15.73;;
1829;SDS011;914;48.118;11.600;2023-05-14T02:37:26;18.03;;;15.43;;
1829;SDS011;914;48.118;11.600;2023-05-14T02:39:51;22.03;;;15.80;;
1829;SDS011;914;48.118;11.600;2023-05-14T02:42:17;21.33;;;17.00;;
1829;SDS011;914;48.118;11.600;2023-05-14T02:44:43;24.37;;;18.47;;
1829;SDS011;914;48.118;11.600;2023-05-14T02:47:08;21.47;;;17.17;;
1829;SDS011;914;48.118;11.600;2023-05-14T02:49:34;21.50;;;16.70;;
1829;SDS011;914;48.118;11.600;2023-05-14T02:51:59;22.50;;;18.00;;
1829;SDS011;914;48.118;11.600;2023-05-14T02:54:25;23.97;;;18.23;;
1829;SDS011;914;48.118;11.600;2023-05-14T02:56:51;24.60;;;18.23;;
1829;SDS011;914;48.118;11.600;2023-05-14T02:59:16;24.70;;;18.87;;
1829;SDS011;914;48.118;11.600;2023-05-14T03:01:42;24.60;;;18.47;;
1829;SDS011;914;48.118;11.600;2023-05-14T03:04:08;25.17;;;18.90;;
1829;SDS011;914;48.118;11.600;2023-05-14T03:06:34;24.63;;;18.53;;
1829;SDS011;914;48.118;11.600;2023-05-14T03:08:59;23.17;;;18.50;;
1829;SDS011;914;48.118;11.600;2023-05-14T03:11:25;24.37;;;18.83;;
1829;SDS011;914;48.118;11.600;2023-05-14T03:13:50;23.53;;;18.13;;
1829;SDS011;914;48.118;11.600;2023-05-14T03:16:16;23.93;;;19.03;;
1829;SDS011;914;48.118;11.600;2023-05-14T03:18:41;25.53;;;19.53;;
1829;SDS011;914;48.118;11.600;2023-05-14T03:21:07;23.43;;;18.10;;
1829;SDS011;914;48.118;11.600;2023-05-14T03:23:33;28.23;;;18.37;;
1829;SDS011;914;48.118;11.600;2023-05-14T03:26:00;23.87;;;18.97;;
1829;SDS011;914;48.118;11.600;2023-05-14T03:28:26;22.43;;;17.60;;
1829;SDS011;914;48.118;11.600;2023-05-14T03:30:51;22.13;;;18.43;;
1829;SDS011;914;48.118;11.600;2023-05-14T03:33:17;18.93;;;15.80;;
1829;SDS011;914;48.118;11.600;2023-05-14T03:35:43;18.13;;;15.40;;
1829;SDS011;914;48.118;11.600;2023-05-14T03:38:11;18.47;;;16.47;;
1829;SDS011;914;48.118;11.600;2023-05-14T03:40:37;18.57;;;16.23;;
1829;SDS011;914;48.118;11.600;2023-05-14T03:43:02;20.30;;;16.33;;
1829;SDS011;914;48.118;11.600;2023-05-14T03:45:28;26.07;;;16.70;;
1829;SDS011;914;48.118;11.600;2023-05-14T03:47:54;19.47;;;15.87;;
1829;SDS011;914;48.118;11.600;2023-05-14T03:50:20;23.70;;;17.20;;
1829;SDS011;914;48.118;11.600;2023-05-14T03:52:49;20.17;;;16.50;;
1829;SDS011;914;48.118;11.600;2023-05-14T03:55:16;17.63;;;15.27;;
1829;SDS011;914;48.118;11.600;2023-05-14T03:57:45;22.40;;;16.07;;
1829;SDS011;914;48.118;11.600;2023-05-14T04:00:12;20.07;;;16.13;;
1829;SDS011;914;48.118;11.600;2023-05-14T04:02:38;22.20;;;17.70;;
1829;SDS011;914;48.118;11.600;2023-05-14T04:05:03;21.70;;;16.93;;
1829;SDS011;914;48.118;11.600;2023-05-14T04:07:29;23.40;;;17.37;;
1829;SDS011;914;48.118;11.600;2023-05-14T04:09:55;20.03;;;17.17;;
1829;SDS011;914;48.118;11.600;2023-05-14T04:12:20;22.03;;;18.57;;
1829;SDS011;914;48.118;11.600;2023-05-14T04:14:46;22.10;;;17.53;;
1829;SDS011;914;48.118;11.600;2023-05-14T04:17:11;22.63;;;17.10;;
1829;SDS011;914;48.118;11.600;2023-05-14T04:19:37;21.87;;;17.27;;
1829;SDS011;914;48.118;11.600;2023-05-14T04:22:04;21.30;;;17.30;;
1829;SDS011;914;48.118;11.600;2023-05-14T04:24:29;20.23;;;16.87;;
1829;SDS011;914;48.118;11.600;2023-05-14T04:26:55;23.27;;;17.70;;
1829;SDS011;914;48.118;11.600;2023-05-14T04:29:21;25.00;;;18.67;;
1829;SDS011;914;48.118;11.600;2023-05-14T04:31:47;25.63;;;18.60;;
1829;SDS011;914;48.118;11.600;2023-05-14T04:34:13;25.33;;;18.90;;
1829;SDS011;914;48.118;11.600;2023-05-14T04:36:39;25.50;;;20.37;;
1829;SDS011;914;48.118;11.600;2023-05-14T04:39:07;24.33;;;18.50;;
1829;SDS011;914;48.118;11.600;2023-05-14T04:41:36;29.83;;;19.83;;
1829;SDS011;914;48.118;11.600;2023-05-14T04:44:02;27.40;;;19.70;;
1829;SDS011;914;48.118;11.600;2023-05-14T04:46:28;27.37;;;19.73;;
1829;SDS011;914;48.118;11.600;2023-05-14T04:48:53;27.17;;;20.93;;
1829;SDS011;914;48.118;11.600;2023-05-14T04:51:20;28.97;;;20.77;;
1829;SDS011;914;48.118;11.600;2023-05-14T04:53:46;30.53;;;20.33;;
1829;SDS011;914;48.118;11.600;2023-05-14T04:56:11;31.37;;;21.23;;
1829;SDS011;914;48.118;11.600;2023-05-14T04:58:37;27.13;;;20.23;;
1829;SDS011;914;48.118;11.600;2023-05-14T05:01:03;29.80;;;20.70;;
1829;SDS011;914;48.118;11.600;2023-05-14T05:03:29;29.70;;;20.40;;
1829;SDS011;914;48.118;11.600;2023-05-14T05:05:56;28.63;;;20.83;;
1829;SDS011;914;48.118;11.600;2023-05-14T05:08:21;27.57;;;19.70;;
1829;SDS011;914;48.118;11.600;2023-05-14T05:10:47;26.90;;;19.87;;
1829;SDS011;914;48.118;11.600;2023-05-14T05:13:13;29.20;;;20.93;;
1829;SDS011;914;48.118;11.600;2023-05-14T05:15:40;26.00;;;18.97;;
1829;SDS011;914;48.118;11.600;2023-05-14T05:18:06;29.10;;;20.57;;
1829;SDS011;914;48.118;11.600;2023-05-14T05:20:32;27.77;;;20.30;;
1829;SDS011;914;48.118;11.600;2023-05-14T05:22:58;30.40;;;20.87;;
1829;SDS011;914;48.118;11.600;2023-05-14T05:25:23;27.07;;;21.03;;
1829;SDS011;914;48.118;11.600;2023-05-14T05:27:49;27.87;;;20.63;;
1829;SDS011;914;48.118;11.600;2023-05-14T05:30:15;27.83;;;20.63;;
1829;SDS011;914;48.118;11.600;2023-05-14T05:32:40;29.07;;;21.07;;
1829;SDS011;914;48.118;11.600;2023-05-14T05:35:06;27.23;;;20.60;;
1829;SDS011;914;48.118;11.600;2023-05-14T05:37:32;27.73;;;19.93;;
1829;SDS011;914;48.118;11.600;2023-05-14T05:39:58;26.30;;;20.13;;
1829;SDS011;914;48.118;11.600;2023-05-14T05:42:23;24.87;;;19.73;;
1829;SDS011;914;48.118;11.600;2023-05-14T05:44:50;27.37;;;19.77;;
1829;SDS011;914;48.118;11.600;2023-05-14T05:47:15;28.13;;;19.90;;
1829;SDS011;914;48.118;11.600;2023-05-14T05:49:41;28.77;;;21.07;;
1829;SDS011;914;48.118;11.600;2023-05-14T05:52:06;27.77;;;19.53;;
1829;SDS011;914;48.118;11.600;2023-05-14T05:54:32;28.93;;;20.53;;
1829;SDS011;914;48.118;11.600;2023-05-14T05:56:58;33.70;;;19.93;;
1829;SDS011;914;48.118;11.600;2023-05-14T05:59:24;25.03;;;19.80;;
1829;SDS011;914;48.118;11.600;2023-05-14T06:01:49;24.90;;;18.90;;
1829;SDS011;914;48.118;11.600;2023-05-14T06:04:15;25.60;;;19.80;;
1829;SDS011;914;48.118;11.600;2023-05-14T06:06:41;27.57;;;19.67;;
1829;SDS011;914;48.118;11.600;2023-05-14T06:09:06;27.00;;;19.13;;
1829;SDS011;914;48.118;11.600;2023-05-14T06:11:33;26.50;;;19.67;;
1829;SDS011;914;48.118;11.600;2023-05-14T06:13:59;27.23;;;19.57;;
1829;SDS011;914;48.118;11.600;2023-05-14T06:16:25;25.30;;;18.83;;
1829;SDS011;914;48.118;11.600;2023-05-14T06:18:51;25.87;;;18.70;;
1829;SDS011;914;48.118;11.600;2023-05-14T06:21:17;24.73;;;18.33;;
1829;SDS011;914;48.118;11.600;2023-05-14T06:23:43;24.07;;;19.27;;
1829;SDS011;914;48.118;11.600;2023-05-14T06:26:08;23.67;;;18.20;;
1829;SDS011;914;48.118;11.600;2023-05-14T06:28:34;26.17;;;19.40;;
1829;SDS011;914;48.118;11.600;2023-05-14T06:31:00;23.03;;;17.30;;
1829;SDS011;914;48.118;11.600;2023-05-14T06:33:25;23.47;;;18.10;;
1829;SDS011;914;48.118;11.600;2023-05-14T06:35:55;20.90;;;17.10;;
1829;SDS011;914;48.118;11.600;2023-05-14T06:38:25;25.33;;;18.07;;
1829;SDS011;914;48.118;11.600;2023-05-14T06:40:50;21.53;;;17.77;;
1829;SDS011;914;48.118;11.600;2023-05-14T06:43:19;20.53;;;16.67;;
1829;SDS011;914;48.118;11.600;2023-05-14T06:45:48;21.57;;;17.27;;
1829;SDS011;914;48.118;11.600;2023-05-14T06:48:15;21.50;;;15.93;;
1829;SDS011;914;48.118;11.600;2023-05-14T06:50:42;23.37;;;17.13;;
1829;SDS011;914;48.118;11.600;2023-05-14T06:53:09;25.50;;;17.60;;
1829;SDS011;914;48.118;11.600;2023-05-14T06:55:34;21.83;;;17.37;;
1829;SDS011;914;48.118;11.600;2023-05-14T06:58:00;22.30;;;17.27;;
1829;SDS011;914;48.118;11.600;2023-05-14T07:00:26;23.03;;;16.43;;
1829;SDS011;914;48.118;11.600;2023-05-14T07:02:52;24.00;;;17.73;;
1829;SDS011;914;48.118;11.600;2023-05-14T07:05:17;23.37;;;18.40;;
1829;SDS011;914;48.118;11.600;2023-05-14T07:07:43;20.70;;;17.67;;
1829;SDS011;914;48.118;11.600;2023-05-14T07:10:09;24.90;;;18.73;;
1829;SDS011;914;48.118;11.600;2023-05-14T07:12:35;23.63;;;17.57;;
1829;SDS011;914;48.118;11.600;2023-05-14T07:15:00;23.50;;;18.13;;
1829;SDS011;914;48.118;11.600;2023-05-14T07:17:26;23.87;;;18.43;;
1829;SDS011;914;48.118;11.600;2023-05-14T07:19:51;21.10;;;17.23;;
1829;SDS011;914;48.118;11.600;2023-05-14T07:22:19;22.70;;;17.40;;
1829;SDS011;914;48.118;11.600;2023-05-14T07:24:45;21.17;;;17.00;;
1829;SDS011;914;48.118;11.600;2023-05-14T07:27:11;21.13;;;16.77;;
1829;SDS011;914;48.118;11.600;2023-05-14T07:29:37;23.30;;;18.17;;
1829;SDS011;914;48.118;11.600;2023-05-14T07:32:02;21.80;;;16.90;;
1829;SDS011;914;48.118;11.600;2023-05-14T07:34:28;26.63;;;18.53;;
1829;SDS011;914;48.118;11.600;2023-05-14T07:36:54;22.10;;;17.43;;
1829;SDS011;914;48.118;11.600;2023-05-14T07:39:20;20.10;;;16.97;;
1829;SDS011;914;48.118;11.600;2023-05-14T07:41:46;21.13;;;17.30;;
1829;SDS011;914;48.118;11.600;2023-05-14T07:44:11;21.47;;;16.93;;
1829;SDS011;914;48.118;11.600;2023-05-14T07:46:37;22.63;;;16.93;;
1829;SDS011;914;48.118;11.600;2023-05-14T07:49:03;21.53;;;17.13;;
1829;SDS011;914;48.118;11.600;2023-05-14T07:51:28;20.43;;;16.07;;
1829;SDS011;914;48.118;11.600;2023-05-14T07:53:54;18.60;;;15.60;;
1829;SDS011;914;48.118;11.600;2023-05-14T07:56:20;17.30;;;14.87;;
1829;SDS011;914;48.118;11.600;2023-05-14T07:58:47;18.63;;;14.47;;
1829;SDS011;914;48.118;11.600;2023-05-14T08:01:12;15.13;;;13.20;;
1829;SDS011;914;48.118;11.600;2023-05-14T08:03:38;15.23;;;13.60;;
1829;SDS011;914;48.118;11.600;2023-05-14T08:06:04;15.93;;;13.47;;
1829;SDS011;914;48.118;11.600;2023-05-14T08:08:30;16.17;;;13.37;;
1829;SDS011;914;48.118;11.600;2023-05-14T08:10:56;17.40;;;13.30;;
1829;SDS011;914;48.118;11.600;2023-05-14T08:13:21;15.87;;;13.83;;
1829;SDS011;914;48.118;11.600;2023-05-14T08:15:47;17.03;;;13.87;;
1829;SDS011;914;48.118;11.600;2023-05-14T08:18:13;14.87;;;12.90;;
1829;SDS011;914;48.118;11.600;2023-05-14T08:20:38;16.33;;;13.57;;
1829;SDS011;914;48.118;11.600;2023-05-14T08:23:04;15.00;;;12.90;;
1829;SDS011;914;48.118;11.600;2023-05-14T08:25:31;18.87;;;13.73;;
1829;SDS011;914;48.118;11.600;2023-05-14T08:27:57;15.17;;;13.03;;
1829;SDS011;914;48.118;11.600;2023-05-14T08:30:23;14.10;;;12.03;;
1829;SDS011;914;48.118;11.600;2023-05-14T08:32:49;13.67;;;11.40;;
1829;SDS011;914;48.118;11.600;2023-05-14T08:35:15;12.90;;;11.20;;
1829;SDS011;914;48.118;11.600;2023-05-14T08:37:41;15.80;;;12.33;;
1829;SDS011;914;48.118;11.600;2023-05-14T08:40:08;14.13;;;11.57;;
1829;SDS011;914;48.118;11.600;2023-05-14T08:42:33;15.07;;;11.87;;
1829;SDS011;914;48.118;11.600;2023-05-14T08:45:02;13.50;;;11.67;;
1829;SDS011;914;48.118;11.600;2023-05-14T08:47:33;13.73;;;12.20;;
1829;SDS011;914;48.118;11.600;2023-05-14T08:50:03;16.60;;;12.83;;
1829;SDS011;914;48.118;11.600;2023-05-14T08:52:31;16.67;;;12.17;;
1829;SDS011;914;48.118;11.600;2023-05-14T08:55:04;14.70;;;12.77;;
1829;SDS011;914;48.118;11.600;2023-05-14T08:57:31;15.80;;;12.47;;
1829;SDS011;914;48.118;11.600;2023-05-14T08:59:57;15.97;;;13.23;;
1829;SDS011;914;48.118;11.600;2023-05-14T09:02:24;15.13;;;13.37;;
1829;SDS011;914;48.118;11.600;2023-05-14T09:04:56;15.27;;;12.63;;
1829;SDS011;914;48.118;11.600;2023-05-14T09:07:25;14.87;;;13.13;;
1829;SDS011;914;48.118;11.600;2023-05-14T09:09:52;16.87;;;12.80;;
1829;SDS011;914;48.118;11.600;2023-05-14T09:12:18;16.30;;;12.83;;
1829;SDS011;914;48.118;11.600;2023-05-14T09:14:44;14.30;;;12.47;;
1829;SDS011;914;48.118;11.600;2023-05-14T09:17:11;17.73;;;12.67;;
1829;SDS011;914;48.118;11.600;2023-05-14T09:19:40;17.63;;;12.57;;
1829;SDS011;914;48.118;11.600;2023-05-14T09:22:08;15.63;;;13.37;;
1829;SDS011;914;48.118;11.600;2023-05-14T09:24:35;17.57;;;13.47;;
1829;SDS011;914;48.118;11.600;2023-05-14T09:27:03;14.53;;;12.77;;
1829;SDS011;914;48.118;11.600;2023-05-14T09:29:30;14.47;;;12.10;;
1829;SDS011;914;48.118;11.600;2023-05-14T09:31:57;14.80;;;11.77;;
1829;SDS011;914;48.118;11.600;2023-05-14T09:34:24;15.80;;;10.87;;
1829;SDS011;914;48.118;11.600;2023-05-14T09:36:58;14.63;;;11.77;;
1829;SDS011;914;48.118;11.600;2023-05-14T09:39:25;14.97;;;10.57;;
1829;SDS011;914;48.118;11.600;2023-05-14T09:41:51;12.37;;;10.37;;
1829;SDS011;914;48.118;11.600;2023-05-14T09:44:18;13.10;;;10.13;;
1829;SDS011;914;48.118;11.600;2023-05-14T09:46:44;12.97;;;10.37;;
1829;SDS011;914;48.118;11.600;2023-05-14T09:49:10;10.73;;;9.63;;
1829;SDS011;914;48.118;11.600;2023-05-14T09:51:37;11.77;;;9.83;;
1829;SDS011;914;48.118;11.600;2023-05-14T09:54:03;12.87;;;9.80;;
1829;SDS011;914;48.118;11.600;2023-05-14T09:56:31;10.30;;;9.27;;
1829;SDS011;914;48.118;11.600;2023-05-14T09:58:57;9.47;;;8.47;;
1829;SDS011;914;48.118;11.600;2023-05-14T10:01:23;10.30;;;9.13;;
1829;SDS011;914;48.118;11.600;2023-05-14T10:03:49;10.53;;;9.43;;
1829;SDS011;914;48.118;11.600;2023-05-14T10:06:16;9.47;;;8.53;;
1829;SDS011;914;48.118;11.600;2023-05-14T10:08:45;9.87;;;8.77;;
1829;SDS011;914;48.118;11.600;2023-05-14T10:11:19;9.67;;;8.27;;
1829;SDS011;914;48.118;11.600;2023-05-14T10:13:55;9.93;;;8.73;;
1829;SDS011;914;48.118;11.600;2023-05-14T10:16:44;9.70;;;8.30;;
1829;SDS011;914;48.118;11.600;2023-05-14T10:19:15;9.90;;;8.40;;
1829;SDS011;914;48.118;11.600;2023-05-14T10:22:04;8.50;;;7.70;;
1829;SDS011;914;48.118;11.600;2023-05-14T10:24:29;8.83;;;7.97;;
1829;SDS011;914;48.118;11.600;2023-05-14T10:26:55;9.47;;;8.53;;
1829;SDS011;914;48.118;11.600;2023-05-14T10:29:35;22.17;;;7.77;;
1829;SDS011;914;48.118;11.600;2023-05-14T10:32:03;9.47;;;8.57;;
1829;SDS011;914;48.118;11.600;2023-05-14T10:37:10;13.07;;;8.67;;
1829;SDS011;914;48.118;11.600;2023-05-14T10:39:44;11.23;;;8.33;;
1829;SDS011;914;48.118;11.600;2023-05-14T10:42:10;9.60;;;8.10;;
1829;SDS011;914;48.118;11.600;2023-05-14T10:44:44;9.47;;;8.57;;
1829;SDS011;914;48.118;11.600;2023-05-14T10:47:16;8.67;;;7.80;;
1829;SDS011;914;48.118;11.600;2023-05-14T10:49:42;8.33;;;7.60;;
1829;SDS011;914;48.118;11.600;2023-05-14T10:52:09;8.63;;;7.80;;
1829;SDS011;914;48.118;11.600;2023-05-14T10:54:36;8.80;;;7.90;;
1829;SDS011;914;48.118;11.600;2023-05-14T10:57:02;9.50;;;8.60;;
1829;SDS011;914;48.118;11.600;2023-05-14T10:59:28;9.27;;;8.37;;
1829;SDS011;914;48.118;11.600;2023-05-14T11:01:55;9.27;;;7.70;;
1829;SDS011;914;48.118;11.600;2023-05-14T11:04:25;8.20;;;7.33;;
1829;SDS011;914;48.118;11.600;2023-05-14T11:06:52;8.07;;;6.80;;
1829;SDS011;914;48.118;11.600;2023-05-14T11:09:18;9.43;;;8.20;;
1829;SDS011;914;48.118;11.600;2023-05-14T11:11:45;8.77;;;7.87;;
1829;SDS011;914;48.118;11.600;2023-05-14T11:14:11;8.73;;;7.70;;
1829;SDS011;914;48.118;11.600;2023-05-14T11:16:37;8.37;;;7.57;;
1829;SDS011;914;48.118;11.600;2023-05-14T11:19:05;8.47;;;7.67;;
1829;SDS011;914;48.118;11.600;2023-05-14T11:21:31;7.90;;;7.17;;
1829;SDS011;914;48.118;11.600;2023-05-14T11:23:59;8.10;;;7.30;;
1829;SDS011;914;48.118;11.600;2023-05-14T11:26:25;7.70;;;6.90;;
1829;SDS011;914;48.118;11.600;2023-05-14T11:28:51;7.23;;;6.53;;
1829;SDS011;914;48.118;11.600;2023-05-14T11:31:16;7.23;;;6.57;;
1829;SDS011;914;48.118;11.600;2023-05-14T11:33:43;7.10;;;6.50;;
1829;SDS011;914;48.118;11.600;2023-05-14T11:36:11;7.20;;;6.50;;
1829;SDS011;914;48.118;11.600;2023-05-14T11:38:47;8.83;;;6.93;;
1829;SDS011;914;48.118;11.600;2023-05-14T11:41:14;7.83;;;6.90;;
1829;SDS011;914;48.118;11.600;2023-05-14T11:43:40;7.23;;;6.53;;
1829;SDS011;914;48.118;11.600;2023-05-14T11:46:06;8.50;;;7.27;;
1829;SDS011;914;48.118;11.600;2023-05-14T11:48:31;8.13;;;6.57;;
1829;SDS011;914;48.118;11.600;2023-05-14T11:50:57;7.27;;;6.57;;
1829;SDS011;914;48.118;11.600;2023-05-14T11:53:27;7.70;;;6.63;;
1829;SDS011;914;48.118;11.600;2023-05-14T11:55:54;6.70;;;6.10;;
1829;SDS011;914;48.118;11.600;2023-05-14T11:58:23;7.10;;;6.40;;
1829;SDS011;914;48.118;11.600;2023-05-14T12:00:50;6.20;;;5.60;;
1829;SDS011;914;48.118;11.600;2023-05-14T12:03:20;6.00;;;5.50;;
1829;SDS011;914;48.118;11.600;2023-05-14T12:05:56;6.00;;;5.50;;
1829;SDS011;914;48.118;11.600;2023-05-14T12:08:26;5.87;;;5.37;;
1829;SDS011;914;48.118;11.600;2023-05-14T12:10:54;5.67;;;5.17;;
1829;SDS011;914;48.118;11.600;2023-05-14T12:13:20;5.27;;;4.77;;
1829;SDS011;914;48.118;11.600;2023-05-14T12:15:47;5.30;;;4.80;;
1829;SDS011;914;48.118;11.600;2023-05-14T12:18:19;4.83;;;4.43;;
1829;SDS011;914;48.118;11.600;2023-05-14T12:20:45;4.20;;;3.80;;
1829;SDS011;914;48.118;11.600;2023-05-14T12:23:12;4.40;;;4.00;;
1829;SDS011;914;48.118;11.600;2023-05-14T12:25:37;4.50;;;4.20;;
1829;SDS011;914;48.118;11.600;2023-05-14T12:28:13;4.32;;;4.00;;
1829;SDS011;914;48.118;11.600;2023-05-14T12:30:39;3.92;;;3.63;;
1829;SDS011;914;48.118;11.600;2023-05-14T12:33:05;5.05;;;3.30;;
1829;SDS011;914;48.118;11.600;2023-05-14T12:35:31;4.10;;;3.80;;
1829;SDS011;914;48.118;11.600;2023-05-14T12:37:57;4.50;;;4.07;;
1829;SDS011;914;48.118;11.600;2023-05-14T12:40:22;3.83;;;3.53;;
1829;SDS011;914;48.118;11.600;2023-05-14T12:42:50;4.30;;;3.90;;
1829;SDS011;914;48.118;11.600;2023-05-14T12:45:15;4.35;;;4.05;;
1829;SDS011;914;48.118;11.600;2023-05-14T12:47:42;4.15;;;3.85;;
1829;SDS011;914;48.118;11.600;2023-05-14T12:50:07;4.50;;;4.10;;
1829;SDS011;914;48.118;11.600;2023-05-14T12:52:33;4.10;;;3.80;;
1829;SDS011;914;48.118;11.600;2023-05-14T12:54:59;4.63;;;4.28;;
1829;SDS011;914;48.118;11.600;2023-05-14T12:57:25;4.40;;;4.10;;
1829;SDS011;914;48.118;11.600;2023-05-14T12:59:52;4.68;;;4.28;;
1829;SDS011;914;48.118;11.600;2023-05-14T13:02:19;4.60;;;4.20;;
1829;SDS011;914;48.118;11.600;2023-05-14T13:04:45;5.15;;;4.65;;
1829;SDS011;914;48.118;11.600;2023-05-14T13:07:11;4.50;;;4.10;;
1829;SDS011;914;48.118;11.600;2023-05-14T13:09:37;4.38;;;3.97;;
1829;SDS011;914;48.118;11.600;2023-05-14T13:12:02;4.88;;;4.30;;
1829;SDS011;914;48.118;11.600;2023-05-14T13:14:28;3.97;;;3.67;;
1829;SDS011;914;48.118;11.600;2023-05-14T13:16:54;4.43;;;3.85;;
1829;SDS011;914;48.118;11.600;2023-05-14T13:19:20;4.68;;;4.28;;
1829;SDS011;914;48.118;11.600;2023-05-14T13:21:45;4.10;;;3.80;;
1829;SDS011;914;48.118;11.600;2023-05-14T13:24:11;4.20;;;3.90;;
1829;SDS011;914;48.118;11.600;2023-05-14T13:26:38;6.65;;;4.25;;
1829;SDS011;914;48.118;11.600;2023-05-14T13:29:03;5.97;;;4.10;;
1829;SDS011;914;48.118;11.600;2023-05-14T13:31:29;3.25;;;3.05;;
1829;SDS011;914;48.118;11.600;2023-05-14T13:33:55;3.95;;;3.60;;
1829;SDS011;914;48.118;11.600;2023-05-14T13:36:22;4.78;;;4.40;;
1829;SDS011;914;48.118;11.600;2023-05-14T13:38:47;4.22;;;3.92;;
1829;SDS011;914;48.118;11.600;2023-05-14T13:41:13;5.30;;;4.00;;
1829;SDS011;914;48.118;11.600;2023-05-14T13:43:38;3.15;;;2.95;;
1829;SDS011;914;48.118;11.600;2023-05-14T13:46:05;3.13;;;2.92;;
1829;SDS011;914;48.118;11.600;2023-05-14T13:48:31;3.47;;;3.28;;
1829;SDS011;914;48.118;11.600;2023-05-14T13:50:57;3.40;;;3.10;;
1829;SDS011;914;48.118;11.600;2023-05-14T13:53:23;3.20;;;3.00;;
1829;SDS011;914;48.118;11.600;2023-05-14T13:55:49;3.05;;;2.85;;
1829;SDS011;914;48.118;11.600;2023-05-14T13:58:20;4.05;;;3.75;;
1829;SDS011;914;48.118;11.600;2023-05-14T14:00:47;4.78;;;3.72;;
1829;SDS011;914;48.118;11.600;2023-05-14T14:03:13;3.90;;;3.60;;
1829;SDS011;914;48.118;11.600;2023-05-14T14:05:39;4.10;;;3.80;;
1829;SDS011;914;48.118;11.600;2023-05-14T14:08:04;3.90;;;3.08;;
1829;SDS011;914;48.118;11.600;2023-05-14T14:10:30;3.17;;;2.97;;
1829;SDS011;914;48.118;11.600;2023-05-14T14:12:56;3.40;;;3.13;;
1829;SDS011;914;48.118;11.600;2023-05-14T14:15:21;3.97;;;2.97;;
1829;SDS011;914;48.118;11.600;2023-05-14T14:17:47;2.97;;;2.78;;
1829;SDS011;914;48.118;11.600;2023-05-14T14:20:13;3.70;;;2.92;;
1829;SDS011;914;48.118;11.600;2023-05-14T14:22:39;3.03;;;2.63;;
1829;SDS011;914;48.118;11.600;2023-05-14T14:25:07;3.03;;;2.30;;
1829;SDS011;914;48.118;11.600;2023-05-14T14:27:33;2.15;;;2.05;;
1829;SDS011;914;48.118;11.600;2023-05-14T14:30:04;2.20;;;2.10;;
1829;SDS011;914;48.118;11.600;2023-05-14T14:32:47;2.58;;;2.38;;
1829;SDS011;914;48.118;11.600;2023-05-14T14:35:14;3.08;;;2.80;;
1829;SDS011;914;48.118;11.600;2023-05-14T14:37:41;2.83;;;2.63;;
1829;SDS011;914;48.118;11.600;2023-05-14T14:40:09;3.38;;;2.45;;
1829;SDS011;914;48.118;11.600;2023-05-14T14:42:37;2.78;;;2.50;;
1829;SDS011;914;48.118;11.600;2023-05-14T14:45:03;2.47;;;2.28;;
1829;SDS011;914;48.118;11.600;2023-05-14T14:47:30;5.72;;;2.92;;
1829;SDS011;914;48.118;11.600;2023-05-14T14:49:56;2.92;;;2.40;;
1829;SDS011;914;48.118;11.600;2023-05-14T14:52:22;9.23;;;3.65;;
1829;SDS011;914;48.118;11.600;2023-05-14T14:54:49;3.15;;;2.78;;
1829;SDS011;914;48.118;11.600;2023-05-14T14:57:15;3.50;;;3.20;;
1829;SDS011;914;48.118;11.600;2023-05-14T14:59:40;3.60;;;3.30;;
1829;SDS011;914;48.118;11.600;2023-05-14T15:02:06;4.22;;;3.22;;
1829;SDS011;914;48.118;11.600;2023-05-14T15:04:33;7.78;;;2.78;;
1829;SDS011;914;48.118;11.600;2023-05-14T15:07:00;4.78;;;2.92;;
1829;SDS011;914;48.118;11.600;2023-05-14T15:09:26;3.30;;;3.10;;